sensor_id;sensor_type;location;lat;lon;timestamp;P1;durP1;ratioP1;P2;durP2;ratioP2
23670;SDS011;12012;51.998;7.614;2022-09-13T00:01:45;6.22;;;5.50;;
23670;SDS011;12012;51.998;7.614;2022-09-13T00:04:10;6.18;;;5.57;;
23670;SDS011;12012;51.998;7.614;2022-09-13T00:06:36;6.68;;;6.03;;
23670;SDS011;12012;51.998;7.614;2022-09-13T00:09:02;5.90;;;5.30;;
23670;SDS011;12012;51.998;7.614;2022-09-13T00:11:28;5.93;;;5.32;;
23670;SDS011;12012;51.998;7.614;2022-09-13T00:13:55;6.70;;;6.00;;
23670;SDS011;12012;51.998;7.614;2022-09-13T00:16:23;6.13;;;5.30;;
23670;SDS011;12012;51.998;7.614;2022-09-13T00:18:50;6.05;;;5.45;;
23670;SDS011;12012;51.998;7.614;2022-09-13T00:21:17;7.80;;;6.15;;
23670;SDS011;12012;51.998;7.614;2022-09-13T00:23:45;6.18;;;5.55;;
23670;SDS011;12012;51.998;7.614;2022-09-13T00:26:13;6.50;;;5.18;;
23670;SDS011;12012;51.998;7.614;2022-09-13T00:28:44;7.78;;;6.07;;
23670;SDS011;12012;51.998;7.614;2022-09-13T00:31:12;8.05;;;5.97;;
23670;SDS011;12012;51.998;7.614;2022-09-13T00:33:38;6.60;;;5.97;;
23670;SDS011;12012;51.998;7.614;2022-09-13T00:36:04;6.88;;;5.97;;
23670;SDS011;12012;51.998;7.614;2022-09-13T00:38:33;7.47;;;6.72;;
23670;SDS011;12012;51.998;7.614;2022-09-13T00:40:59;5.97;;;5.38;;
23670;SDS011;12012;51.998;7.614;2022-09-13T00:46:09;6.60;;;5.90;;
23670;SDS011;12012;51.998;7.614;2022-09-13T00:48:37;6.68;;;5.43;;
23670;SDS011;12012;51.998;7.614;2022-09-13T00:51:03;6.38;;;5.53;;
23670;SDS011;12012;51.998;7.614;2022-09-13T00:53:32;7.53;;;6.72;;
23670;SDS011;12012;51.998;7.614;2022-09-13T00:56:02;9.23;;;6.20;;
23670;SDS011;12012;51.998;7.614;2022-09-13T00:58:49;10.20;;;7.15;;
23670;SDS011;12012;51.998;7.614;2022-09-13T01:01:23;7.70;;;6.22;;
23670;SDS011;12012;51.998;7.614;2022-09-13T01:03:53;7.40;;;6.07;;
23670;SDS011;12012;51.998;7.614;2022-09-13T01:06:23;10.50;;;6.88;;
23670;SDS011;12012;51.998;7.614;2022-09-13T01:08:53;7.82;;;6.55;;
23670;SDS011;12012;51.998;7.614;2022-09-13T01:11:26;7.45;;;5.80;;
23670;SDS011;12012;51.998;7.614;2022-09-13T01:13:56;6.90;;;5.70;;
23670;SDS011;12012;51.998;7.614;2022-09-13T01:16:22;8.75;;;6.82;;
23670;SDS011;12012;51.998;7.614;2022-09-13T01:18:48;8.27;;;6.68;;
23670;SDS011;12012;51.998;7.614;2022-09-13T01:46:27;7.75;;;6.25;;
23670;SDS011;12012;51.998;7.614;2022-09-13T02:05:18;6.88;;;5.70;;
23670;SDS011;12012;51.998;7.614;2022-09-13T02:08:02;7.70;;;6.82;;
23670;SDS011;12012;51.998;7.614;2022-09-13T02:10:34;6.78;;;6.18;;
23670;SDS011;12012;51.998;7.614;2022-09-13T02:13:06;9.13;;;7.00;;
23670;SDS011;12012;51.998;7.614;2022-09-13T02:18:08;9.95;;;6.35;;
23670;SDS011;12012;51.998;7.614;2022-09-13T02:20:39;7.22;;;5.97;;
23670;SDS011;12012;51.998;7.614;2022-09-13T02:23:09;6.18;;;5.47;;
23670;SDS011;12012;51.998;7.614;2022-09-13T02:25:39;8.13;;;7.00;;
23670;SDS011;12012;51.998;7.614;2022-09-13T02:28:07;6.82;;;5.90;;
23670;SDS011;12012;51.998;7.614;2022-09-13T02:30:36;6.85;;;6.07;;
23670;SDS011;12012;51.998;7.614;2022-09-13T02:38:26;10.82;;;7.32;;
23670;SDS011;12012;51.998;7.614;2022-09-13T02:41:06;10.25;;;7.82;;
23670;SDS011;12012;51.998;7.614;2022-09-13T02:43:52;7.63;;;6.82;;
23670;SDS011;12012;51.998;7.614;2022-09-13T02:46:39;11.15;;;8.48;;
23670;SDS011;12012;51.998;7.614;2022-09-13T02:55:19;7.85;;;7.05;;
23670;SDS011;12012;51.998;7.614;2022-09-13T03:00:44;10.20;;;7.35;;
23670;SDS011;12012;51.998;7.614;2022-09-13T03:03:11;10.15;;;8.70;;
23670;SDS011;12012;51.998;7.614;2022-09-13T03:05:39;9.15;;;7.35;;
23670;SDS011;12012;51.998;7.614;2022-09-13T03:08:05;10.02;;;7.28;;
23670;SDS011;12012;51.998;7.614;2022-09-13T03:10:39;10.05;;;8.88;;
23670;SDS011;12012;51.998;7.614;2022-09-13T03:13:28;11.60;;;9.38;;
23670;SDS011;12012;51.998;7.614;2022-09-13T03:16:23;9.23;;;7.18;;
23670;SDS011;12012;51.998;7.614;2022-09-13T03:35:08;10.45;;;8.40;;
23670;SDS011;12012;51.998;7.614;2022-09-13T03:37:50;8.35;;;7.47;;
23670;SDS011;12012;51.998;7.614;2022-09-13T03:45:48;9.77;;;8.15;;
23670;SDS011;12012;51.998;7.614;2022-09-13T03:48:18;7.90;;;6.70;;
23670;SDS011;12012;51.998;7.614;2022-09-13T03:50:44;11.75;;;8.05;;
23670;SDS011;12012;51.998;7.614;2022-09-13T03:53:12;9.70;;;7.20;;
23670;SDS011;12012;51.998;7.614;2022-09-13T03:55:43;8.43;;;7.63;;
23670;SDS011;12012;51.998;7.614;2022-09-13T03:58:13;11.20;;;8.65;;
23670;SDS011;12012;51.998;7.614;2022-09-13T04:00:40;10.32;;;8.48;;
23670;SDS011;12012;51.998;7.614;2022-09-13T04:03:05;9.45;;;7.15;;
23670;SDS011;12012;51.998;7.614;2022-09-13T04:05:32;8.32;;;7.25;;
23670;SDS011;12012;51.998;7.614;2022-09-13T04:08:01;7.95;;;6.03;;
23670;SDS011;12012;51.998;7.614;2022-09-13T04:10:29;8.15;;;7.30;;
23670;SDS011;12012;51.998;7.614;2022-09-13T04:12:56;8.35;;;6.65;;
23670;SDS011;12012;51.998;7.614;2022-09-13T04:15:23;7.38;;;6.57;;
23670;SDS011;12012;51.998;7.614;2022-09-13T04:17:49;11.98;;;9.00;;
23670;SDS011;12012;51.998;7.614;2022-09-13T04:20:15;10.38;;;8.35;;
23670;SDS011;12012;51.998;7.614;2022-09-13T04:22:40;6.32;;;5.72;;
23670;SDS011;12012;51.998;7.614;2022-09-13T04:25:06;9.23;;;7.40;;
23670;SDS011;12012;51.998;7.614;2022-09-13T04:27:32;8.05;;;5.90;;
23670;SDS011;12012;51.998;7.614;2022-09-13T04:29:59;9.48;;;8.23;;
23670;SDS011;12012;51.998;7.614;2022-09-13T04:32:26;14.73;;;6.90;;
23670;SDS011;12012;51.998;7.614;2022-09-13T04:34:51;8.07;;;6.40;;
23670;SDS011;12012;51.998;7.614;2022-09-13T04:37:17;7.63;;;6.82;;
23670;SDS011;12012;51.998;7.614;2022-09-13T04:39:43;8.60;;;6.20;;
23670;SDS011;12012;51.998;7.614;2022-09-13T04:42:08;6.80;;;6.07;;
23670;SDS011;12012;51.998;7.614;2022-09-13T04:44:35;7.75;;;5.90;;
23670;SDS011;12012;51.998;7.614;2022-09-13T04:47:01;7.40;;;6.70;;
23670;SDS011;12012;51.998;7.614;2022-09-13T04:49:26;8.43;;;6.63;;
23670;SDS011;12012;51.998;7.614;2022-09-13T04:51:52;8.80;;;6.50;;
23670;SDS011;12012;51.998;7.614;2022-09-13T04:54:18;7.43;;;6.63;;
23670;SDS011;12012;51.998;7.614;2022-09-13T04:56:44;6.38;;;5.78;;
23670;SDS011;12012;51.998;7.614;2022-09-13T04:59:10;8.23;;;6.25;;
23670;SDS011;12012;51.998;7.614;2022-09-13T05:01:36;15.45;;;8.95;;
23670;SDS011;12012;51.998;7.614;2022-09-13T05:04:02;11.25;;;7.53;;
23670;SDS011;12012;51.998;7.614;2022-09-13T05:06:28;10.23;;;6.80;;
23670;SDS011;12012;51.998;7.614;2022-09-13T05:08:54;8.88;;;7.63;;
23670;SDS011;12012;51.998;7.614;2022-09-13T05:11:21;8.85;;;6.65;;
23670;SDS011;12012;51.998;7.614;2022-09-13T05:13:51;9.77;;;6.90;;
23670;SDS011;12012;51.998;7.614;2022-09-13T05:16:19;8.27;;;6.60;;
23670;SDS011;12012;51.998;7.614;2022-09-13T05:18:49;9.40;;;7.18;;
23670;SDS011;12012;51.998;7.614;2022-09-13T05:21:15;8.32;;;6.85;;
23670;SDS011;12012;51.998;7.614;2022-09-13T05:23:41;7.68;;;6.68;;
23670;SDS011;12012;51.998;7.614;2022-09-13T05:26:07;9.13;;;7.00;;
23670;SDS011;12012;51.998;7.614;2022-09-13T05:28:33;10.73;;;7.95;;
23670;SDS011;12012;51.998;7.614;2022-09-13T05:31:03;7.55;;;6.45;;
23670;SDS011;12012;51.998;7.614;2022-09-13T05:33:30;7.15;;;5.80;;
23670;SDS011;12012;51.998;7.614;2022-09-13T05:35:58;7.93;;;5.80;;
23670;SDS011;12012;51.998;7.614;2022-09-13T05:38:24;8.88;;;6.95;;
23670;SDS011;12012;51.998;7.614;2022-09-13T05:40:56;9.35;;;6.70;;
23670;SDS011;12012;51.998;7.614;2022-09-13T05:43:24;8.48;;;6.50;;
23670;SDS011;12012;51.998;7.614;2022-09-13T05:45:59;8.52;;;6.93;;
23670;SDS011;12012;51.998;7.614;2022-09-13T05:48:35;11.20;;;6.85;;
23670;SDS011;12012;51.998;7.614;2022-09-13T05:53:43;11.30;;;8.68;;
23670;SDS011;12012;51.998;7.614;2022-09-13T05:56:11;7.47;;;5.75;;
23670;SDS011;12012;51.998;7.614;2022-09-13T05:58:42;9.40;;;6.72;;
23670;SDS011;12012;51.998;7.614;2022-09-13T06:01:09;10.65;;;6.07;;
23670;SDS011;12012;51.998;7.614;2022-09-13T06:03:36;8.10;;;6.20;;
23670;SDS011;12012;51.998;7.614;2022-09-13T06:06:02;8.20;;;6.53;;
23670;SDS011;12012;51.998;7.614;2022-09-13T06:08:29;12.07;;;6.30;;
23670;SDS011;12012;51.998;7.614;2022-09-13T06:10:56;8.88;;;6.53;;
23670;SDS011;12012;51.998;7.614;2022-09-13T06:13:24;6.95;;;5.70;;
23670;SDS011;12012;51.998;7.614;2022-09-13T06:15:51;6.07;;;5.47;;
23670;SDS011;12012;51.998;7.614;2022-09-13T06:18:18;7.47;;;6.68;;
23670;SDS011;12012;51.998;7.614;2022-09-13T06:20:44;8.65;;;7.22;;
23670;SDS011;12012;51.998;7.614;2022-09-13T06:23:10;8.77;;;6.60;;
23670;SDS011;12012;51.998;7.614;2022-09-13T06:25:36;7.40;;;5.80;;
23670;SDS011;12012;51.998;7.614;2022-09-13T06:28:02;8.60;;;5.75;;
23670;SDS011;12012;51.998;7.614;2022-09-13T06:30:27;7.07;;;6.25;;
23670;SDS011;12012;51.998;7.614;2022-09-13T06:32:54;11.05;;;7.57;;
23670;SDS011;12012;51.998;7.614;2022-09-13T06:35:20;6.57;;;5.88;;
23670;SDS011;12012;51.998;7.614;2022-09-13T06:37:46;9.57;;;6.90;;
23670;SDS011;12012;51.998;7.614;2022-09-13T06:40:12;11.25;;;7.05;;
23670;SDS011;12012;51.998;7.614;2022-09-13T06:42:37;11.40;;;7.30;;
23670;SDS011;12012;51.998;7.614;2022-09-13T06:45:03;8.52;;;6.07;;
23670;SDS011;12012;51.998;7.614;2022-09-13T06:47:30;10.82;;;6.40;;
23670;SDS011;12012;51.998;7.614;2022-09-13T06:49:56;10.07;;;6.85;;
23670;SDS011;12012;51.998;7.614;2022-09-13T06:52:22;10.30;;;6.25;;
23670;SDS011;12012;51.998;7.614;2022-09-13T06:54:48;10.43;;;6.80;;
23670;SDS011;12012;51.998;7.614;2022-09-13T06:57:14;6.03;;;5.43;;
23670;SDS011;12012;51.998;7.614;2022-09-13T06:59:39;8.85;;;6.75;;
23670;SDS011;12012;51.998;7.614;2022-09-13T07:02:05;8.52;;;6.40;;
23670;SDS011;12012;51.998;7.614;2022-09-13T07:04:30;9.57;;;6.47;;
23670;SDS011;12012;51.998;7.614;2022-09-13T07:06:57;9.52;;;7.55;;
23670;SDS011;12012;51.998;7.614;2022-09-13T07:09:23;15.45;;;8.15;;
23670;SDS011;12012;51.998;7.614;2022-09-13T07:11:51;9.02;;;6.93;;
23670;SDS011;12012;51.998;7.614;2022-09-13T07:14:22;9.43;;;6.82;;
23670;SDS011;12012;51.998;7.614;2022-09-13T07:16:49;9.13;;;6.47;;
23670;SDS011;12012;51.998;7.614;2022-09-13T07:19:19;7.55;;;5.90;;
23670;SDS011;12012;51.998;7.614;2022-09-13T07:21:47;9.18;;;6.75;;
23670;SDS011;12012;51.998;7.614;2022-09-13T07:24:14;11.90;;;8.20;;
23670;SDS011;12012;51.998;7.614;2022-09-13T07:26:40;9.38;;;6.32;;
23670;SDS011;12012;51.998;7.614;2022-09-13T07:29:07;12.75;;;7.93;;
23670;SDS011;12012;51.998;7.614;2022-09-13T07:31:36;7.68;;;6.07;;
23670;SDS011;12012;51.998;7.614;2022-09-13T07:34:04;12.30;;;9.02;;
23670;SDS011;12012;51.998;7.614;2022-09-13T07:36:31;13.43;;;9.70;;
23670;SDS011;12012;51.998;7.614;2022-09-13T07:38:58;14.02;;;10.60;;
23670;SDS011;12012;51.998;7.614;2022-09-13T07:41:26;10.98;;;9.52;;
23670;SDS011;12012;51.998;7.614;2022-09-13T07:43:52;10.45;;;9.32;;
23670;SDS011;12012;51.998;7.614;2022-09-13T07:46:22;10.85;;;9.10;;
23670;SDS011;12012;51.998;7.614;2022-09-13T07:48:54;13.60;;;9.90;;
23670;SDS011;12012;51.998;7.614;2022-09-13T07:51:22;12.65;;;10.40;;
23670;SDS011;12012;51.998;7.614;2022-09-13T07:53:53;14.27;;;9.90;;
23670;SDS011;12012;51.998;7.614;2022-09-13T07:56:21;12.23;;;10.63;;
23670;SDS011;12012;51.998;7.614;2022-09-13T07:58:52;11.73;;;9.75;;
23670;SDS011;12012;51.998;7.614;2022-09-13T08:01:22;10.05;;;7.43;;
23670;SDS011;12012;51.998;7.614;2022-09-13T08:04:11;12.55;;;10.57;;
23670;SDS011;12012;51.998;7.614;2022-09-13T08:06:41;10.73;;;8.90;;
23670;SDS011;12012;51.998;7.614;2022-09-13T08:09:07;17.30;;;10.95;;
23670;SDS011;12012;51.998;7.614;2022-09-13T08:11:35;15.23;;;11.65;;
23670;SDS011;12012;51.998;7.614;2022-09-13T08:14:03;17.20;;;9.60;;
23670;SDS011;12012;51.998;7.614;2022-09-13T08:16:30;14.85;;;10.65;;
23670;SDS011;12012;51.998;7.614;2022-09-13T08:18:57;13.75;;;9.88;;
23670;SDS011;12012;51.998;7.614;2022-09-13T08:21:25;15.95;;;11.65;;
23670;SDS011;12012;51.998;7.614;2022-09-13T08:23:54;8.88;;;6.72;;
23670;SDS011;12012;51.998;7.614;2022-09-13T08:26:23;15.82;;;13.68;;
23670;SDS011;12012;51.998;7.614;2022-09-13T08:28:53;20.48;;;12.50;;
23670;SDS011;12012;51.998;7.614;2022-09-13T08:31:23;20.42;;;9.73;;
23670;SDS011;12012;51.998;7.614;2022-09-13T08:33:50;14.50;;;9.43;;
23670;SDS011;12012;51.998;7.614;2022-09-13T08:36:15;19.73;;;12.55;;
23670;SDS011;12012;51.998;7.614;2022-09-13T08:38:48;13.93;;;10.43;;
23670;SDS011;12012;51.998;7.614;2022-09-13T08:41:23;22.13;;;17.98;;
23670;SDS011;12012;51.998;7.614;2022-09-13T08:46:24;18.05;;;13.95;;
23670;SDS011;12012;51.998;7.614;2022-09-13T08:49:04;18.27;;;13.63;;
23670;SDS011;12012;51.998;7.614;2022-09-13T08:51:51;15.07;;;10.65;;
23670;SDS011;12012;51.998;7.614;2022-09-13T08:54:27;22.33;;;16.27;;
23670;SDS011;12012;51.998;7.614;2022-09-13T08:59:23;20.00;;;15.98;;
23670;SDS011;12012;51.998;7.614;2022-09-13T09:02:16;18.38;;;14.32;;
23670;SDS011;12012;51.998;7.614;2022-09-13T09:04:53;18.27;;;14.23;;
23670;SDS011;12012;51.998;7.614;2022-09-13T09:07:43;27.58;;;15.65;;
23670;SDS011;12012;51.998;7.614;2022-09-13T09:10:16;19.65;;;15.05;;
23670;SDS011;12012;51.998;7.614;2022-09-13T09:12:54;18.38;;;12.45;;
23670;SDS011;12012;51.998;7.614;2022-09-13T09:15:28;27.00;;;11.43;;
23670;SDS011;12012;51.998;7.614;2022-09-13T09:17:59;19.30;;;15.73;;
23670;SDS011;12012;51.998;7.614;2022-09-13T09:20:31;18.25;;;13.00;;
23670;SDS011;12012;51.998;7.614;2022-09-13T09:25:30;12.95;;;8.57;;
23670;SDS011;12012;51.998;7.614;2022-09-13T09:27:58;16.30;;;10.82;;
23670;SDS011;12012;51.998;7.614;2022-09-13T09:30:24;13.05;;;10.10;;
23670;SDS011;12012;51.998;7.614;2022-09-13T09:33:03;12.43;;;9.82;;
23670;SDS011;12012;51.998;7.614;2022-09-13T09:38:31;9.18;;;7.50;;
23670;SDS011;12012;51.998;7.614;2022-09-13T09:41:27;12.52;;;10.10;;
23670;SDS011;12012;51.998;7.614;2022-09-13T09:46:23;11.50;;;8.32;;
23670;SDS011;12012;51.998;7.614;2022-09-13T09:48:59;11.52;;;9.68;;
23670;SDS011;12012;51.998;7.614;2022-09-13T09:51:56;10.25;;;8.88;;
23670;SDS011;12012;51.998;7.614;2022-09-13T09:54:23;14.05;;;11.80;;
23670;SDS011;12012;51.998;7.614;2022-09-13T09:56:51;19.55;;;14.45;;
23670;SDS011;12012;51.998;7.614;2022-09-13T09:59:26;16.63;;;10.70;;
23670;SDS011;12012;51.998;7.614;2022-09-13T10:01:56;14.07;;;12.05;;
23670;SDS011;12012;51.998;7.614;2022-09-13T10:04:23;15.02;;;11.52;;
23670;SDS011;12012;51.998;7.614;2022-09-13T10:06:50;15.55;;;11.23;;
23670;SDS011;12012;51.998;7.614;2022-09-13T10:09:33;16.05;;;11.52;;
23670;SDS011;12012;51.998;7.614;2022-09-13T10:12:01;12.60;;;11.27;;
23670;SDS011;12012;51.998;7.614;2022-09-13T10:14:34;14.52;;;9.60;;
23670;SDS011;12012;51.998;7.614;2022-09-13T10:17:03;14.32;;;11.13;;
23670;SDS011;12012;51.998;7.614;2022-09-13T10:19:29;16.50;;;10.93;;
23670;SDS011;12012;51.998;7.614;2022-09-13T10:22:03;15.63;;;11.90;;
23670;SDS011;12012;51.998;7.614;2022-09-13T10:24:34;11.75;;;10.40;;
23670;SDS011;12012;51.998;7.614;2022-09-13T10:27:00;14.43;;;11.75;;
23670;SDS011;12012;51.998;7.614;2022-09-13T10:29:28;10.23;;;8.82;;
23670;SDS011;12012;51.998;7.614;2022-09-13T10:31:55;14.90;;;12.18;;
23670;SDS011;12012;51.998;7.614;2022-09-13T10:37:04;9.57;;;8.60;;
23670;SDS011;12012;51.998;7.614;2022-09-13T10:40:24;15.75;;;11.00;;
23670;SDS011;12012;51.998;7.614;2022-09-13T10:42:51;13.23;;;11.20;;
23670;SDS011;12012;51.998;7.614;2022-09-13T10:45:21;9.60;;;7.05;;
23670;SDS011;12012;51.998;7.614;2022-09-13T10:47:49;10.30;;;8.60;;
23670;SDS011;12012;51.998;7.614;2022-09-13T10:50:23;9.93;;;8.45;;
23670;SDS011;12012;51.998;7.614;2022-09-13T10:52:51;11.93;;;8.82;;
23670;SDS011;12012;51.998;7.614;2022-09-13T10:55:28;12.45;;;10.52;;
23670;SDS011;12012;51.998;7.614;2022-09-13T11:25:38;12.77;;;9.65;;
23670;SDS011;12012;51.998;7.614;2022-09-13T11:36:40;12.10;;;10.60;;
23670;SDS011;12012;51.998;7.614;2022-09-13T11:39:41;12.55;;;9.80;;
23670;SDS011;12012;51.998;7.614;2022-09-13T11:51:03;11.45;;;7.32;;
23670;SDS011;12012;51.998;7.614;2022-09-13T11:56:45;37.58;;;23.80;;
23670;SDS011;12012;51.998;7.614;2022-09-13T11:59:20;22.15;;;14.75;;
23670;SDS011;12012;51.998;7.614;2022-09-13T12:04:44;26.05;;;16.02;;
23670;SDS011;12012;51.998;7.614;2022-09-13T12:07:33;15.20;;;11.20;;
23670;SDS011;12012;51.998;7.614;2022-09-13T12:10:14;13.93;;;10.18;;
23670;SDS011;12012;51.998;7.614;2022-09-13T12:12:46;11.68;;;9.20;;
23670;SDS011;12012;51.998;7.614;2022-09-13T12:15:16;8.55;;;6.95;;
23670;SDS011;12012;51.998;7.614;2022-09-13T12:18:18;12.70;;;8.00;;
23670;SDS011;12012;51.998;7.614;2022-09-13T12:20:54;10.90;;;7.75;;
23670;SDS011;12012;51.998;7.614;2022-09-13T12:23:29;12.00;;;7.57;;
23670;SDS011;12012;51.998;7.614;2022-09-13T12:26:00;6.95;;;5.95;;
23670;SDS011;12012;51.998;7.614;2022-09-13T12:28:36;8.25;;;5.53;;
23670;SDS011;12012;51.998;7.614;2022-09-13T12:31:15;10.05;;;6.80;;
23670;SDS011;12012;51.998;7.614;2022-09-13T12:33:44;9.10;;;5.35;;
23670;SDS011;12012;51.998;7.614;2022-09-13T12:38:56;5.70;;;4.32;;
23670;SDS011;12012;51.998;7.614;2022-09-13T12:47:46;8.13;;;4.53;;
23670;SDS011;12012;51.998;7.614;2022-09-13T12:53:14;5.43;;;3.42;;
23670;SDS011;12012;51.998;7.614;2022-09-13T12:55:59;4.75;;;3.38;;
23670;SDS011;12012;51.998;7.614;2022-09-13T13:01:33;6.93;;;4.20;;
23670;SDS011;12012;51.998;7.614;2022-09-13T13:06:29;4.65;;;3.50;;
23670;SDS011;12012;51.998;7.614;2022-09-13T13:08:57;3.60;;;2.70;;
23670;SDS011;12012;51.998;7.614;2022-09-13T13:11:28;3.28;;;2.60;;
23670;SDS011;12012;51.998;7.614;2022-09-13T13:14:04;5.00;;;2.90;;
23670;SDS011;12012;51.998;7.614;2022-09-13T13:16:37;2.25;;;2.05;;
23670;SDS011;12012;51.998;7.614;2022-09-13T13:25:08;3.72;;;2.45;;
23670;SDS011;12012;51.998;7.614;2022-09-13T13:31:06;3.72;;;2.78;;
23670;SDS011;12012;51.998;7.614;2022-09-13T13:33:41;3.10;;;1.95;;
23670;SDS011;12012;51.998;7.614;2022-09-13T13:36:24;4.00;;;3.00;;
23670;SDS011;12012;51.998;7.614;2022-09-13T13:38:57;6.03;;;3.15;;
23670;SDS011;12012;51.998;7.614;2022-09-13T13:46:44;3.55;;;2.50;;
23670;SDS011;12012;51.998;7.614;2022-09-13T13:57:22;3.03;;;2.13;;
23670;SDS011;12012;51.998;7.614;2022-09-13T13:59:50;3.78;;;1.98;;
23670;SDS011;12012;51.998;7.614;2022-09-13T14:02:35;5.38;;;2.40;;
23670;SDS011;12012;51.998;7.614;2022-09-13T14:08:05;6.25;;;2.28;;
23670;SDS011;12012;51.998;7.614;2022-09-13T14:19:22;4.90;;;2.40;;
23670;SDS011;12012;51.998;7.614;2022-09-13T14:24:36;2.17;;;1.80;;
23670;SDS011;12012;51.998;7.614;2022-09-13T14:27:03;2.65;;;1.70;;
23670;SDS011;12012;51.998;7.614;2022-09-13T14:29:29;4.70;;;1.98;;
23670;SDS011;12012;51.998;7.614;2022-09-13T14:32:02;1.95;;;1.73;;
23670;SDS011;12012;51.998;7.614;2022-09-13T14:34:35;2.25;;;1.50;;
23670;SDS011;12012;51.998;7.614;2022-09-13T14:37:14;2.97;;;1.80;;
23670;SDS011;12012;51.998;7.614;2022-09-13T14:42:44;2.63;;;1.70;;
23670;SDS011;12012;51.998;7.614;2022-09-13T14:45:14;1.58;;;1.48;;
23670;SDS011;12012;51.998;7.614;2022-09-13T14:48:04;2.67;;;1.80;;
23670;SDS011;12012;51.998;7.614;2022-09-13T14:50:38;1.55;;;1.20;;
23670;SDS011;12012;51.998;7.614;2022-09-13T14:53:07;2.15;;;1.15;;
23670;SDS011;12012;51.998;7.614;2022-09-13T14:55:39;4.25;;;1.52;;
23670;SDS011;12012;51.998;7.614;2022-09-13T14:58:13;2.05;;;1.40;;
23670;SDS011;12012;51.998;7.614;2022-09-13T15:01:16;3.92;;;1.55;;
23670;SDS011;12012;51.998;7.614;2022-09-13T15:03:42;2.45;;;1.20;;
23670;SDS011;12012;51.998;7.614;2022-09-13T15:06:18;2.95;;;1.70;;
23670;SDS011;12012;51.998;7.614;2022-09-13T15:09:28;1.50;;;1.10;;
23670;SDS011;12012;51.998;7.614;2022-09-13T15:16:57;2.40;;;0.93;;
23670;SDS011;12012;51.998;7.614;2022-09-13T15:22:22;1.02;;;0.90;;
23670;SDS011;12012;51.998;7.614;2022-09-13T15:24:50;1.20;;;1.10;;
23670;SDS011;12012;51.998;7.614;2022-09-13T15:29:52;2.67;;;1.05;;
23670;SDS011;12012;51.998;7.614;2022-09-13T15:32:41;3.50;;;1.20;;
23670;SDS011;12012;51.998;7.614;2022-09-13T15:35:14;2.05;;;1.02;;
23670;SDS011;12012;51.998;7.614;2022-09-13T15:37:42;4.00;;;1.65;;
23670;SDS011;12012;51.998;7.614;2022-09-13T15:42:48;2.83;;;1.10;;
23670;SDS011;12012;51.998;7.614;2022-09-13T15:45:16;1.77;;;1.00;;
23670;SDS011;12012;51.998;7.614;2022-09-13T15:47:44;3.08;;;1.10;;
23670;SDS011;12012;51.998;7.614;2022-09-13T15:52:47;1.10;;;0.80;;
23670;SDS011;12012;51.998;7.614;2022-09-13T15:55:13;1.38;;;0.80;;
23670;SDS011;12012;51.998;7.614;2022-09-13T15:57:38;1.98;;;0.82;;
23670;SDS011;12012;51.998;7.614;2022-09-13T16:00:05;2.13;;;1.10;;
23670;SDS011;12012;51.998;7.614;2022-09-13T16:02:35;2.63;;;0.85;;
23670;SDS011;12012;51.998;7.614;2022-09-13T16:05:01;4.10;;;1.10;;
23670;SDS011;12012;51.998;7.614;2022-09-13T16:07:27;1.73;;;0.90;;
23670;SDS011;12012;51.998;7.614;2022-09-13T16:09:52;2.58;;;1.05;;
23670;SDS011;12012;51.998;7.614;2022-09-13T16:12:18;2.67;;;1.20;;
23670;SDS011;12012;51.998;7.614;2022-09-13T16:14:47;1.60;;;0.85;;
23670;SDS011;12012;51.998;7.614;2022-09-13T16:17:15;1.55;;;0.82;;
23670;SDS011;12012;51.998;7.614;2022-09-13T16:19:45;1.35;;;0.80;;
23670;SDS011;12012;51.998;7.614;2022-09-13T16:22:11;2.25;;;0.82;;
23670;SDS011;12012;51.998;7.614;2022-09-13T16:24:36;3.40;;;0.90;;
23670;SDS011;12012;51.998;7.614;2022-09-13T16:27:02;2.00;;;0.95;;
23670;SDS011;12012;51.998;7.614;2022-09-13T16:29:28;2.22;;;0.88;;
23670;SDS011;12012;51.998;7.614;2022-09-13T16:31:54;1.30;;;0.90;;
23670;SDS011;12012;51.998;7.614;2022-09-13T16:34:21;1.67;;;0.60;;
23670;SDS011;12012;51.998;7.614;2022-09-13T16:36:47;1.58;;;0.80;;
23670;SDS011;12012;51.998;7.614;2022-09-13T16:39:13;2.13;;;0.98;;
23670;SDS011;12012;51.998;7.614;2022-09-13T16:41:38;3.97;;;1.00;;
23670;SDS011;12012;51.998;7.614;2022-09-13T16:44:04;1.25;;;0.70;;
23670;SDS011;12012;51.998;7.614;2022-09-13T16:46:30;2.88;;;0.80;;
23670;SDS011;12012;51.998;7.614;2022-09-13T16:48:57;1.42;;;0.70;;
23670;SDS011;12012;51.998;7.614;2022-09-13T16:51:23;2.60;;;0.75;;
23670;SDS011;12012;51.998;7.614;2022-09-13T16:53:49;1.30;;;0.70;;
23670;SDS011;12012;51.998;7.614;2022-09-13T16:56:17;1.10;;;0.70;;
23670;SDS011;12012;51.998;7.614;2022-09-13T16:58:45;2.35;;;0.70;;
23670;SDS011;12012;51.998;7.614;2022-09-13T17:01:12;3.28;;;1.05;;
23670;SDS011;12012;51.998;7.614;2022-09-13T17:03:40;3.67;;;0.90;;
23670;SDS011;12012;51.998;7.614;2022-09-13T17:06:07;1.13;;;0.80;;
23670;SDS011;12012;51.998;7.614;2022-09-13T17:08:35;1.00;;;0.80;;
23670;SDS011;12012;51.998;7.614;2022-09-13T17:11:06;1.92;;;0.90;;
23670;SDS011;12012;51.998;7.614;2022-09-13T17:13:33;2.17;;;0.60;;
23670;SDS011;12012;51.998;7.614;2022-09-13T17:15:59;2.15;;;0.73;;
23670;SDS011;12012;51.998;7.614;2022-09-13T17:18:25;2.95;;;1.05;;
23670;SDS011;12012;51.998;7.614;2022-09-13T17:20:51;1.73;;;0.93;;
23670;SDS011;12012;51.998;7.614;2022-09-13T17:23:17;0.73;;;0.70;;
23670;SDS011;12012;51.998;7.614;2022-09-13T17:25:44;3.05;;;1.13;;
23670;SDS011;12012;51.998;7.614;2022-09-13T17:28:12;1.20;;;0.80;;
23670;SDS011;12012;51.998;7.614;2022-09-13T17:30:38;2.30;;;1.20;;
23670;SDS011;12012;51.998;7.614;2022-09-13T17:33:05;1.02;;;0.80;;
23670;SDS011;12012;51.998;7.614;2022-09-13T17:35:31;2.50;;;1.10;;
23670;SDS011;12012;51.998;7.614;2022-09-13T17:37:57;2.97;;;0.80;;
23670;SDS011;12012;51.998;7.614;2022-09-13T17:40:24;4.05;;;1.10;;
23670;SDS011;12012;51.998;7.614;2022-09-13T17:42:50;1.70;;;0.80;;
23670;SDS011;12012;51.998;7.614;2022-09-13T17:45:16;4.10;;;1.20;;
23670;SDS011;12012;51.998;7.614;2022-09-13T17:47:42;3.40;;;1.13;;
23670;SDS011;12012;51.998;7.614;2022-09-13T17:50:08;4.70;;;0.90;;
23670;SDS011;12012;51.998;7.614;2022-09-13T17:52:34;1.92;;;1.00;;
23670;SDS011;12012;51.998;7.614;2022-09-13T17:54:59;5.45;;;0.98;;
23670;SDS011;12012;51.998;7.614;2022-09-13T17:57:25;3.47;;;1.00;;
23670;SDS011;12012;51.998;7.614;2022-09-13T17:59:52;1.30;;;0.70;;
23670;SDS011;12012;51.998;7.614;2022-09-13T18:02:18;2.60;;;1.10;;
23670;SDS011;12012;51.998;7.614;2022-09-13T18:04:45;3.42;;;0.85;;
23670;SDS011;12012;51.998;7.614;2022-09-13T18:07:11;2.28;;;0.95;;
23670;SDS011;12012;51.998;7.614;2022-09-13T18:09:37;3.90;;;1.08;;
23670;SDS011;12012;51.998;7.614;2022-09-13T18:12:04;5.45;;;1.33;;
23670;SDS011;12012;51.998;7.614;2022-09-13T18:14:29;2.55;;;1.08;;
23670;SDS011;12012;51.998;7.614;2022-09-13T18:16:56;4.78;;;0.98;;
23670;SDS011;12012;51.998;7.614;2022-09-13T18:19:22;4.43;;;1.15;;
23670;SDS011;12012;51.998;7.614;2022-09-13T18:21:48;6.53;;;1.10;;
23670;SDS011;12012;51.998;7.614;2022-09-13T18:24:14;2.47;;;1.10;;
23670;SDS011;12012;51.998;7.614;2022-09-13T18:26:39;2.63;;;1.30;;
23670;SDS011;12012;51.998;7.614;2022-09-13T18:29:08;4.07;;;1.00;;
23670;SDS011;12012;51.998;7.614;2022-09-13T18:31:35;5.32;;;1.40;;
23670;SDS011;12012;51.998;7.614;2022-09-13T18:34:03;4.55;;;1.10;;
23670;SDS011;12012;51.998;7.614;2022-09-13T18:36:30;3.40;;;1.05;;
23670;SDS011;12012;51.998;7.614;2022-09-13T18:38:57;1.85;;;1.00;;
23670;SDS011;12012;51.998;7.614;2022-09-13T18:41:28;4.47;;;1.27;;
23670;SDS011;12012;51.998;7.614;2022-09-13T18:43:55;2.40;;;1.10;;